Αρχική σελίδα
METAR-TAF:

METAR-TAF

Αεροδρόμια :

Ντζαμένα, Τσαντ

γεωγραφικό πλάτος: 12-08N, γεωγραφικό μήκος: 015-02E, υψόμετρο: 295 μ

Παρών καιρός

Η αναφορά έγινε 48 λεπτά πριν, στις 05:00 UTC
Άνεμος 6 kt από Β
Θερμοκρασία 17°C
Υγρασία 34%
Πίεση 1015 hPa
Ορατότητα: 6000 μ

METAR: FTTJ 110500Z 36006KT 6000 NSC 17/01 Q1015 NOSIG

Χρόνος: 06:48 (05:48 UTC)

Πρόγνωση Καιρού

Η αναφορά έγινε 48 λεπτά πριν, στις 05:00 UTC
Η πρόγνωση ισχύει από τις 11 στις 06 UTC έως τις 12 στις 12 UTC
Άνεμος 8 kt από Β/BA
Ορατότητα: 8000 μ

TAF: FTTJ 110500Z 1106/1212 03008KT 8000 NSC

Μετεωρολογικές αναφορές και προγνώσεις για περισσότερα από 4000 αεροδρόμια (δελτία METAR και TAF).

Οι διαθέσιμοι σταθμοί απεικονίζονται στο χάρτη με κίτρινες και κόκκινες κουκκίδες.

Μετακινήστε το ποντίκι πάνω από τις κουκκίδες για να δείτε το όνομα του σταθμού.

Στη συνέχεια, κάντε κλικ για να δείτε τις μετεωρολογικές αναφορές και τις προγνώσεις καιρού.

Για να αλλάξετε το χάρτη: κάντε κλικ στα πράσινα κουμπιά με τον μαύρο σταυρό για να ζουμάρετε, στο πράσινο κουμπί με την παύλα για να αφαιρέσετε το ζουμ ή στα πράσινα βέλη για να αντιπαραβάλλετε χάρτες.


METAR-TAF: